createdAt,value
2017-12-11T00:01:43.637Z,80.40
2017-12-11T00:04:10.526Z,80.80
2017-12-11T00:06:37.461Z,81.10
2017-12-11T00:09:04.326Z,80.90
2017-12-11T00:11:31.222Z,80.80
2017-12-11T00:13:58.107Z,80.80
2017-12-11T00:16:24.991Z,81.00
2017-12-11T00:18:51.859Z,80.90
2017-12-11T00:21:18.783Z,80.90
2017-12-11T00:23:46.389Z,80.80
2017-12-11T00:26:13.236Z,80.90
2017-12-11T00:28:40.132Z,81.30
2017-12-11T00:31:07.010Z,81.00
2017-12-11T00:33:33.887Z,81.50
2017-12-11T00:36:00.799Z,81.60
2017-12-11T00:38:27.707Z,81.30
2017-12-11T00:40:54.586Z,81.60
2017-12-11T00:43:21.483Z,81.30
2017-12-11T00:45:49.155Z,82.00
2017-12-11T00:48:16.068Z,82.00
2017-12-11T00:50:42.969Z,82.10
2017-12-11T00:53:09.875Z,82.10
2017-12-11T00:55:37.495Z,82.40
2017-12-11T00:58:04.359Z,82.30
2017-12-11T01:00:31.992Z,82.10
2017-12-11T01:02:58.877Z,82.10
2017-12-11T01:05:25.770Z,82.20
2017-12-11T01:07:52.679Z,82.20
2017-12-11T01:10:20.330Z,82.50
2017-12-11T01:12:47.944Z,82.60
2017-12-11T01:15:14.795Z,82.50
2017-12-11T01:17:41.748Z,82.50
2017-12-11T01:20:08.600Z,82.70
2017-12-11T01:22:36.230Z,82.80
2017-12-11T01:25:03.071Z,82.90
2017-12-11T01:27:29.958Z,82.70
2017-12-11T01:29:56.815Z,83.30
2017-12-11T01:32:24.475Z,84.00
2017-12-11T01:34:51.294Z,84.00
2017-12-11T01:37:18.155Z,83.90
2017-12-11T01:39:45.806Z,84.20
2017-12-11T01:42:12.651Z,84.20
2017-12-11T01:44:40.532Z,84.40
2017-12-11T01:47:08.162Z,85.00
2017-12-11T01:49:35.059Z,85.00
2017-12-11T01:52:01.967Z,85.00
2017-12-11T01:54:29.595Z,86.30
2017-12-11T01:56:56.665Z,86.30
2017-12-11T01:59:23.555Z,86.10
2017-12-11T02:01:51.114Z,85.40
2017-12-11T02:04:18.005Z,86.20
2017-12-11T02:06:44.842Z,85.20
2017-12-11T02:09:11.890Z,85.20
2017-12-11T02:11:38.775Z,85.30
2017-12-11T02:14:05.666Z,85.10
2017-12-11T02:16:32.539Z,84.80
2017-12-11T02:18:59.416Z,84.90
2017-12-11T02:21:26.511Z,85.20
2017-12-11T02:23:53.398Z,85.50
2017-12-11T02:26:20.280Z,85.70
2017-12-11T02:28:47.180Z,85.60
2017-12-11T02:31:14.838Z,85.70
2017-12-11T02:33:42.495Z,85.60
2017-12-11T02:36:10.102Z,85.20
2017-12-11T02:38:37.103Z,85.20
2017-12-11T02:41:04.043Z,85.80
2017-12-11T02:43:31.693Z,85.60
2017-12-11T02:45:58.579Z,85.70
2017-12-11T02:48:25.482Z,86.00
2017-12-11T02:50:52.404Z,85.60
2017-12-11T02:53:19.308Z,85.20
2017-12-11T02:55:46.214Z,85.20
2017-12-11T02:58:13.071Z,85.20
2017-12-11T03:00:40.929Z,85.50
2017-12-11T03:03:07.817Z,85.50
2017-12-11T03:05:34.675Z,85.70
2017-12-11T03:08:01.596Z,86.50
2017-12-11T03:10:29.199Z,86.20
2017-12-11T03:12:56.082Z,86.10
2017-12-11T03:15:22.942Z,85.90
2017-12-11T03:17:50.582Z,86.40
2017-12-11T03:20:18.211Z,86.80
2017-12-11T03:22:45.082Z,86.70
2017-12-11T03:25:12.012Z,86.80
2017-12-11T03:27:38.938Z,87.50
2017-12-11T03:30:05.804Z,87.50
2017-12-11T03:32:32.679Z,87.70
2017-12-11T03:35:00.271Z,87.00
2017-12-11T03:37:27.198Z,87.00
2017-12-11T03:39:54.068Z,87.10
2017-12-11T03:42:20.935Z,87.30
2017-12-11T03:44:47.838Z,87.20
2017-12-11T03:47:15.358Z,87.20
2017-12-11T03:49:42.978Z,87.20
2017-12-11T03:52:09.820Z,87.20
2017-12-11T03:54:36.710Z,87.70
2017-12-11T03:57:03.562Z,87.70
2017-12-11T03:59:31.196Z,87.90
2017-12-11T04:01:59.087Z,88.00
2017-12-11T04:04:25.912Z,87.00
2017-12-11T04:06:52.752Z,87.80
2017-12-11T04:09:19.772Z,87.90
2017-12-11T04:11:46.615Z,87.20
2017-12-11T04:14:13.462Z,87.70
2017-12-11T04:16:40.294Z,88.00
2017-12-11T04:19:07.185Z,88.00
2017-12-11T04:21:34.034Z,88.00
2017-12-11T04:24:01.682Z,88.30
2017-12-11T04:26:28.546Z,88.30
2017-12-11T04:28:55.427Z,89.60
2017-12-11T04:31:22.278Z,89.30
2017-12-11T04:33:49.111Z,89.50
2017-12-11T04:36:15.946Z,90.10
2017-12-11T04:38:43.507Z,90.10
2017-12-11T04:41:10.374Z,89.50
2017-12-11T04:43:37.235Z,89.30
2017-12-11T04:46:04.251Z,88.90
2017-12-11T04:48:31.090Z,88.60
2017-12-11T04:50:57.925Z,89.10
2017-12-11T04:53:24.806Z,88.80
2017-12-11T04:55:51.641Z,88.70
2017-12-11T04:58:18.494Z,88.50
2017-12-11T05:00:45.442Z,88.70
2017-12-11T05:03:13.050Z,89.50
2017-12-11T05:05:40.062Z,89.50
2017-12-11T05:08:06.902Z,89.10
2017-12-11T05:10:34.503Z,89.80
2017-12-11T05:13:01.352Z,89.70
2017-12-11T05:15:28.230Z,89.30
2017-12-11T05:17:55.105Z,89.60
2017-12-11T05:20:22.706Z,89.70
2017-12-11T05:22:49.610Z,89.60
2017-12-11T05:25:18.145Z,90.00
2017-12-11T05:27:45.042Z,90.00
2017-12-11T05:30:12.497Z,90.00
2017-12-11T05:32:39.854Z,89.90
2017-12-11T05:35:06.728Z,90.00
2017-12-11T05:37:34.366Z,90.10
2017-12-11T05:40:01.259Z,90.10
2017-12-11T05:42:28.144Z,90.00
2017-12-11T05:44:55.061Z,90.20
2017-12-11T05:47:21.939Z,90.30
2017-12-11T05:49:48.790Z,90.30
2017-12-11T05:52:16.399Z,90.10
2017-12-11T05:54:43.250Z,90.10
2017-12-11T05:57:10.085Z,90.00
2017-12-11T05:59:36.976Z,90.30
2017-12-11T06:02:03.830Z,90.90
2017-12-11T06:04:30.790Z,90.60
2017-12-11T06:06:57.645Z,90.50
2017-12-11T06:09:24.530Z,90.50
2017-12-11T06:11:52.167Z,90.20
2017-12-11T06:14:19.011Z,90.20
2017-12-11T06:16:45.822Z,90.10
2017-12-11T06:19:13.479Z,90.70
2017-12-11T06:21:40.382Z,90.70
2017-12-11T06:24:08.030Z,90.90
2017-12-11T06:26:34.851Z,90.90
2017-12-11T06:29:01.711Z,90.70
2017-12-11T06:31:29.307Z,90.80
2017-12-11T06:33:56.161Z,90.80
2017-12-11T06:36:23.006Z,90.80
2017-12-11T06:38:49.885Z,90.70
2017-12-11T06:41:16.714Z,90.70
2017-12-11T06:43:43.594Z,90.70
2017-12-11T06:46:10.421Z,90.60
2017-12-11T06:48:37.290Z,90.70
2017-12-11T06:51:04.879Z,90.60
2017-12-11T06:53:31.726Z,90.60
2017-12-11T06:55:58.571Z,90.40
2017-12-11T06:58:25.399Z,90.40
2017-12-11T07:00:52.283Z,90.50
2017-12-11T07:03:19.143Z,90.70
2017-12-11T07:05:46.007Z,90.60
2017-12-11T07:08:13.615Z,90.60
2017-12-11T07:10:40.483Z,90.60
2017-12-11T07:13:07.354Z,90.70
2017-12-11T07:15:34.246Z,90.80
2017-12-11T07:18:01.143Z,91.30
2017-12-11T07:20:28.750Z,91.20
2017-12-11T07:22:55.626Z,91.20
2017-12-11T07:25:22.463Z,91.00
2017-12-11T07:27:49.346Z,90.90
2017-12-11T07:30:16.194Z,90.80
2017-12-11T07:32:43.071Z,90.60
2017-12-11T07:35:09.946Z,90.60
2017-12-11T07:37:37.548Z,91.00
2017-12-11T07:40:04.383Z,91.00
2017-12-11T07:42:31.275Z,90.90
2017-12-11T07:44:58.164Z,91.50
2017-12-11T07:47:25.015Z,92.10
2017-12-11T07:49:51.863Z,91.70
2017-12-11T07:52:18.726Z,91.60
2017-12-11T07:54:45.563Z,91.60
2017-12-11T07:57:12.407Z,91.60
2017-12-11T07:59:39.275Z,91.40
2017-12-11T08:02:06.168Z,91.30
2017-12-11T08:04:33.020Z,91.20
2017-12-11T08:06:59.876Z,91.00
2017-12-11T08:09:26.727Z,91.00
2017-12-11T08:11:53.579Z,90.90
2017-12-11T08:14:20.452Z,90.90
2017-12-11T08:16:47.299Z,90.60
2017-12-11T08:19:14.942Z,90.80
2017-12-11T08:21:41.814Z,90.80
2017-12-11T08:24:09.423Z,90.70
2017-12-11T08:26:36.295Z,90.70
2017-12-11T08:29:03.188Z,90.70
2017-12-11T08:31:30.057Z,91.00
2017-12-11T08:33:56.904Z,90.40
2017-12-11T08:36:23.752Z,90.70
2017-12-11T08:38:50.620Z,90.60
2017-12-11T08:41:18.243Z,90.60
2017-12-11T08:43:45.112Z,90.60
2017-12-11T08:46:11.991Z,90.70
2017-12-11T08:48:38.883Z,90.90
2017-12-11T08:51:05.748Z,90.80
2017-12-11T08:53:33.339Z,91.40
2017-12-11T08:56:00.234Z,91.50
2017-12-11T08:58:27.091Z,91.10
2017-12-11T09:00:53.960Z,90.90
2017-12-11T09:03:21.575Z,90.90
2017-12-11T09:05:48.448Z,90.80
2017-12-11T09:08:16.050Z,91.40
2017-12-11T09:10:42.875Z,91.30
2017-12-11T09:13:10.460Z,91.40
2017-12-11T09:15:37.326Z,91.50
2017-12-11T09:18:04.243Z,91.20
2017-12-11T09:20:31.114Z,91.10
2017-12-11T09:22:57.959Z,91.30
2017-12-11T09:25:24.834Z,91.30
2017-12-11T09:27:52.450Z,91.20
2017-12-11T09:30:19.323Z,91.10
2017-12-11T09:32:46.186Z,90.90
2017-12-11T09:35:13.794Z,90.70
2017-12-11T09:37:40.651Z,90.70
2017-12-11T09:40:07.531Z,90.70
2017-12-11T09:42:35.135Z,90.80
2017-12-11T09:45:01.987Z,90.80
2017-12-11T09:47:28.846Z,90.70
2017-12-11T09:49:55.751Z,90.60
2017-12-11T09:52:22.595Z,90.30
2017-12-11T09:54:49.459Z,90.40
2017-12-11T09:57:16.495Z,90.00
2017-12-11T09:59:43.339Z,90.50
2017-12-11T10:02:10.198Z,90.10
2017-12-11T10:04:37.078Z,90.00
2017-12-11T10:07:04.676Z,90.30
2017-12-11T10:09:31.566Z,90.20
2017-12-11T10:11:58.465Z,90.50
2017-12-11T10:14:26.067Z,90.80
2017-12-11T10:16:52.967Z,90.80
2017-12-11T10:19:19.819Z,90.90
2017-12-11T10:21:46.690Z,91.20
2017-12-11T10:24:13.545Z,91.40
2017-12-11T10:26:40.438Z,91.50
2017-12-11T10:29:07.282Z,92.00
2017-12-11T10:31:34.188Z,92.10
2017-12-11T10:34:01.767Z,92.10
2017-12-11T10:36:28.858Z,92.10
2017-12-11T10:38:55.710Z,92.10
2017-12-11T10:41:23.287Z,92.40
2017-12-11T10:43:50.159Z,92.40
2017-12-11T10:46:17.206Z,92.60
2017-12-11T10:48:44.826Z,92.70
2017-12-11T10:51:11.676Z,92.70
2017-12-11T10:53:38.550Z,92.90
2017-12-11T10:56:06.126Z,92.70
2017-12-11T10:58:32.990Z,92.70
2017-12-11T11:00:59.863Z,92.80
2017-12-11T11:03:26.748Z,93.10
2017-12-11T11:05:53.646Z,93.00
2017-12-11T11:08:20.479Z,92.90
2017-12-11T11:10:47.354Z,92.90
2017-12-11T11:13:14.963Z,92.90
2017-12-11T11:15:41.835Z,92.90
2017-12-11T11:18:08.683Z,93.10
2017-12-11T11:20:35.539Z,93.20
2017-12-11T11:23:02.414Z,93.30
2017-12-11T11:25:30.001Z,93.60
2017-12-11T11:27:56.843Z,93.60
2017-12-11T11:30:23.719Z,93.50
2017-12-11T11:32:51.355Z,93.80
2017-12-11T11:35:18.255Z,93.80
2017-12-11T11:37:45.112Z,93.60
2017-12-11T11:40:11.970Z,93.80
2017-12-11T11:42:38.848Z,93.90
2017-12-11T11:45:05.790Z,93.70
2017-12-11T11:47:32.638Z,93.90
2017-12-11T11:49:59.498Z,93.90
2017-12-11T11:52:27.113Z,94.00
2017-12-11T11:54:53.982Z,94.00
2017-12-11T11:57:20.871Z,94.30
2017-12-11T11:59:47.783Z,94.30
2017-12-11T12:02:16.252Z,94.80
2017-12-11T12:04:43.130Z,94.70
2017-12-11T12:07:10.770Z,94.70
2017-12-11T12:09:37.684Z,94.70
2017-12-11T12:12:04.544Z,94.90
2017-12-11T12:14:31.410Z,95.10
2017-12-11T12:16:59.039Z,95.40
2017-12-11T12:19:25.967Z,95.30
2017-12-11T12:21:52.847Z,95.20
2017-12-11T12:24:19.726Z,95.40
2017-12-11T12:26:46.618Z,95.40
2017-12-11T12:29:13.474Z,95.50
2017-12-11T12:31:40.403Z,95.40
2017-12-11T12:34:07.301Z,95.50
2017-12-11T12:36:34.930Z,95.80
2017-12-11T12:39:01.810Z,95.80
2017-12-11T12:41:28.654Z,96.00
2017-12-11T12:43:55.543Z,96.40
2017-12-11T12:46:22.395Z,96.60
2017-12-11T12:48:49.290Z,96.60
2017-12-11T12:51:16.139Z,96.60
2017-12-11T12:53:43.025Z,96.60
2017-12-11T12:56:10.642Z,96.80
2017-12-11T12:58:37.479Z,96.50
2017-12-11T13:01:04.345Z,96.80
2017-12-11T13:03:31.171Z,97.20
2017-12-11T13:05:58.014Z,97.10
2017-12-11T13:08:24.907Z,97.10
2017-12-11T13:10:52.524Z,97.00
2017-12-11T13:13:19.358Z,97.00
2017-12-11T13:15:46.211Z,96.90
2017-12-11T13:18:13.077Z,96.90
2017-12-11T13:20:39.906Z,96.90
2017-12-11T13:23:06.790Z,97.00
2017-12-11T13:25:33.764Z,96.90
2017-12-11T13:28:01.345Z,97.40
2017-12-11T13:30:28.219Z,97.40
2017-12-11T13:32:55.066Z,97.40
2017-12-11T13:35:21.930Z,97.60
2017-12-11T13:37:49.550Z,97.20
2017-12-11T13:40:16.405Z,97.10
2017-12-11T13:42:43.243Z,97.40
2017-12-11T13:45:10.110Z,97.30
2017-12-11T13:47:36.981Z,97.20
2017-12-11T13:50:04.572Z,97.10
2017-12-11T13:52:31.458Z,97.10
2017-12-11T13:54:59.050Z,97.60
2017-12-11T13:57:25.946Z,97.20
2017-12-11T13:59:52.781Z,97.40
2017-12-11T14:02:19.616Z,97.70
2017-12-11T14:04:46.487Z,97.80
2017-12-11T14:07:13.296Z,98.00
2017-12-11T14:09:40.198Z,97.80
2017-12-11T14:12:07.091Z,97.80
2017-12-11T14:14:33.940Z,97.80
2017-12-11T14:17:00.822Z,97.70
2017-12-11T14:19:27.766Z,97.80
2017-12-11T14:21:55.351Z,97.60
2017-12-11T14:24:22.224Z,97.50
2017-12-11T14:26:49.083Z,97.40
2017-12-11T14:29:15.962Z,97.50
2017-12-11T14:31:42.835Z,97.50
2017-12-11T14:34:09.693Z,97.30
2017-12-11T14:36:36.587Z,97.30
2017-12-11T14:39:04.215Z,97.40
2017-12-11T14:41:31.094Z,97.40
2017-12-11T14:43:57.967Z,97.50
2017-12-11T14:46:24.835Z,97.60
2017-12-11T14:48:51.707Z,97.60
2017-12-11T14:51:18.562Z,97.40
2017-12-11T14:53:46.174Z,97.60
2017-12-11T14:56:13.035Z,97.60
2017-12-11T14:58:39.919Z,97.70
2017-12-11T15:01:07.519Z,97.50
2017-12-11T15:03:34.435Z,97.50
2017-12-11T15:06:01.319Z,97.80
2017-12-11T15:08:28.212Z,98.50
2017-12-11T15:10:55.150Z,98.30
2017-12-11T15:13:22.778Z,98.10
2017-12-11T15:15:49.698Z,98.10
2017-12-11T15:18:16.615Z,97.70
2017-12-11T15:20:43.567Z,97.60
2017-12-11T15:23:10.551Z,97.70
2017-12-11T15:25:37.447Z,97.40
2017-12-11T15:28:04.374Z,97.40
2017-12-11T15:30:32.085Z,97.90
2017-12-11T15:32:59.011Z,97.50
2017-12-11T15:35:25.901Z,97.50
2017-12-11T15:37:52.835Z,98.10
2017-12-11T15:40:19.742Z,98.10
2017-12-11T15:42:46.595Z,99.00
2017-12-11T15:45:13.539Z,99.70
2017-12-11T15:47:40.421Z,99.10
2017-12-11T15:50:07.314Z,98.60
2017-12-11T15:52:34.191Z,98.40
2017-12-11T15:55:01.103Z,98.00
2017-12-11T15:57:28.038Z,97.70
2017-12-11T15:59:55.131Z,97.60
2017-12-11T16:02:22.011Z,97.40
2017-12-11T16:04:48.937Z,98.10
2017-12-11T16:07:15.849Z,97.90
2017-12-11T16:09:42.897Z,98.40
2017-12-11T16:12:09.826Z,98.50
2017-12-11T16:14:36.746Z,98.60
2017-12-11T16:17:04.347Z,98.70
2017-12-11T16:19:31.254Z,98.70
2017-12-11T16:21:58.203Z,98.50
2017-12-11T16:24:25.116Z,98.20
2017-12-11T16:26:52.130Z,98.10
2017-12-11T16:29:19.091Z,98.20
2017-12-11T16:31:46.002Z,98.10
2017-12-11T16:34:12.894Z,98.00
2017-12-11T16:36:40.530Z,98.10
2017-12-11T16:39:07.431Z,98.10
2017-12-11T16:41:34.534Z,98.40
2017-12-11T16:44:01.402Z,98.50
2017-12-11T16:46:28.335Z,98.50
2017-12-11T16:48:55.992Z,98.40
2017-12-11T16:51:22.889Z,98.70
2017-12-11T16:53:49.771Z,98.30
2017-12-11T16:56:16.650Z,98.10
2017-12-11T16:58:44.312Z,98.10
2017-12-11T17:01:11.202Z,98.10
2017-12-11T17:03:38.083Z,98.10
2017-12-11T17:06:05.007Z,98.20
2017-12-11T17:08:31.879Z,98.20
2017-12-11T17:10:59.547Z,98.40
2017-12-11T17:13:27.159Z,98.10
2017-12-11T17:15:54.055Z,98.10
2017-12-11T17:18:21.678Z,98.10
2017-12-11T17:20:49.430Z,98.50
2017-12-11T17:23:16.290Z,98.20
2017-12-11T17:25:43.157Z,98.20
2017-12-11T17:28:10.798Z,98.40
2017-12-11T17:30:37.684Z,98.40
2017-12-11T17:33:04.591Z,98.30
2017-12-11T17:35:32.198Z,98.60
2017-12-11T17:37:59.112Z,98.60
2017-12-11T17:40:26.731Z,99.00
2017-12-11T17:42:53.622Z,98.90
2017-12-11T17:45:20.568Z,98.90
2017-12-11T17:47:48.199Z,98.40
2017-12-11T17:50:15.360Z,98.40
2017-12-11T17:52:43.087Z,98.60
2017-12-11T17:55:10.028Z,98.60
2017-12-11T17:57:37.800Z,98.40
2017-12-11T18:00:04.647Z,98.40
2017-12-11T18:02:31.547Z,98.70
2017-12-11T18:04:58.448Z,98.70
2017-12-11T18:07:26.133Z,99.30
2017-12-11T18:09:53.018Z,98.90
2017-12-11T18:12:19.891Z,99.20
2017-12-11T18:14:46.787Z,99.50
2017-12-11T18:17:13.652Z,99.70
2017-12-11T18:19:40.610Z,99.80
2017-12-11T18:22:07.452Z,99.80
2017-12-11T18:24:34.295Z,99.60
2017-12-11T18:27:01.170Z,99.50
2017-12-11T18:29:28.059Z,99.50
2017-12-11T18:31:54.966Z,99.60
2017-12-11T18:34:21.847Z,99.70
2017-12-11T18:36:48.728Z,99.60
2017-12-11T18:39:15.643Z,99.70
2017-12-11T18:41:42.486Z,99.90
2017-12-11T18:44:09.495Z,99.90
2017-12-11T18:46:37.102Z,99.90
2017-12-11T18:49:03.934Z,99.80
2017-12-11T18:51:31.522Z,99.60
2017-12-11T18:53:58.416Z,99.50
2017-12-11T18:56:26.026Z,99.40
2017-12-11T18:58:52.915Z,99.40
2017-12-11T19:01:20.523Z,99.50
2017-12-11T19:03:48.190Z,99.70
2017-12-11T19:06:15.098Z,99.30
2017-12-11T19:08:42.029Z,99.30
2017-12-11T19:11:08.905Z,99.20
2017-12-11T19:13:35.766Z,99.00
2017-12-11T19:16:02.638Z,99.20
2017-12-11T19:18:29.538Z,99.00
2017-12-11T19:20:56.499Z,98.90
2017-12-11T19:23:23.466Z,99.00
2017-12-11T19:25:51.103Z,99.30
2017-12-11T19:28:17.979Z,99.30
2017-12-11T19:30:44.873Z,99.30
2017-12-11T19:33:11.742Z,99.70
2017-12-11T19:35:38.716Z,99.40
2017-12-11T19:38:06.374Z,99.50
2017-12-11T19:40:34.072Z,98.90
2017-12-11T19:43:00.983Z,98.80
2017-12-11T19:45:28.571Z,99.10
2017-12-11T19:47:56.206Z,98.90
2017-12-11T19:50:23.856Z,99.20
2017-12-11T19:52:50.750Z,99.10
2017-12-11T19:55:17.580Z,98.80
2017-12-11T19:57:44.466Z,98.70
2017-12-11T20:00:11.331Z,98.50
2017-12-11T20:02:38.218Z,98.50
2017-12-11T20:05:05.114Z,98.60
2017-12-11T20:07:31.970Z,98.60
2017-12-11T20:09:58.907Z,98.50
2017-12-11T20:12:26.859Z,98.60
2017-12-11T20:14:53.712Z,98.60
2017-12-11T20:17:20.607Z,98.70
2017-12-11T20:19:47.459Z,98.70
2017-12-11T20:22:14.904Z,98.90
2017-12-11T20:24:41.766Z,99.10
2017-12-11T20:27:08.623Z,99.30
2017-12-11T20:29:35.498Z,99.20
2017-12-11T20:32:03.120Z,99.10
2017-12-11T20:34:29.970Z,98.80
2017-12-11T20:36:56.842Z,98.70
2017-12-11T20:39:23.724Z,98.90
2017-12-11T20:41:50.607Z,99.00
2017-12-11T20:44:17.479Z,99.00
2017-12-11T20:46:45.067Z,98.90
2017-12-11T20:49:12.675Z,98.20
2017-12-11T20:51:39.555Z,98.10
2017-12-11T20:54:07.146Z,96.80
2017-12-11T20:56:34.222Z,96.80
2017-12-11T20:59:01.093Z,96.00
2017-12-11T21:01:28.116Z,94.90
2017-12-11T21:03:55.155Z,94.30
2017-12-11T21:06:22.099Z,93.90
2017-12-11T21:08:49.044Z,93.80
2017-12-11T21:13:50.283Z,93.60
2017-12-11T21:16:17.239Z,93.60
2017-12-11T21:18:44.143Z,93.20
2017-12-11T21:21:11.035Z,93.20
2017-12-11T21:23:38.759Z,92.80
2017-12-11T21:26:05.658Z,92.70
2017-12-11T21:28:32.574Z,92.50
2017-12-11T21:31:00.758Z,92.90
2017-12-11T21:33:28.651Z,93.20
2017-12-11T21:35:55.570Z,93.10
2017-12-11T21:38:23.287Z,93.20
2017-12-11T21:40:50.889Z,94.10
2017-12-11T21:43:17.767Z,94.20
2017-12-11T21:45:44.631Z,93.80
2017-12-11T21:48:12.279Z,93.80
2017-12-11T21:50:39.997Z,93.80
2017-12-11T21:53:06.875Z,93.80
2017-12-11T21:55:33.798Z,93.70
2017-12-11T21:58:00.886Z,93.50
2017-12-11T22:00:27.786Z,93.30
2017-12-11T22:02:54.651Z,92.80
2017-12-11T22:05:21.474Z,92.50
2017-12-11T22:07:48.404Z,92.10
2017-12-11T22:10:15.324Z,91.70
2017-12-11T22:12:43.478Z,91.30
2017-12-11T22:15:10.541Z,91.30
2017-12-11T22:17:38.182Z,90.80
2017-12-11T22:20:05.846Z,90.60
2017-12-11T22:22:33.479Z,90.20
2017-12-11T22:25:00.411Z,90.20
2017-12-11T22:27:27.303Z,89.50
2017-12-11T22:29:54.939Z,88.70
2017-12-11T22:32:21.863Z,88.70
2017-12-11T22:34:48.726Z,88.40
2017-12-11T22:37:15.611Z,87.80
2017-12-11T22:39:42.443Z,86.60
2017-12-11T22:42:09.370Z,85.70
2017-12-11T22:44:36.223Z,85.60
2017-12-11T22:47:03.111Z,84.30
2017-12-11T22:49:29.973Z,84.50
2017-12-11T22:51:56.818Z,83.60
2017-12-11T22:54:24.028Z,83.60
2017-12-11T22:56:51.203Z,83.10
2017-12-11T22:59:18.092Z,82.90
2017-12-11T23:01:44.918Z,83.50
2017-12-11T23:04:11.798Z,82.30
2017-12-11T23:06:39.383Z,81.30
2017-12-11T23:09:06.264Z,81.30
2017-12-11T23:11:33.126Z,81.20
2017-12-11T23:13:59.946Z,80.50
2017-12-11T23:16:26.850Z,80.70
2017-12-11T23:18:53.723Z,80.70
2017-12-11T23:21:20.571Z,80.00
2017-12-11T23:23:47.423Z,79.70
2017-12-11T23:26:14.269Z,78.90
2017-12-11T23:28:41.158Z,78.70
2017-12-11T23:31:08.732Z,78.70
2017-12-11T23:33:35.594Z,79.50
2017-12-11T23:36:02.431Z,78.90
2017-12-11T23:38:29.274Z,78.40
2017-12-11T23:40:56.140Z,78.30
2017-12-11T23:43:22.998Z,77.70
2017-12-11T23:45:49.872Z,77.70
2017-12-11T23:48:16.706Z,77.30
2017-12-11T23:50:44.407Z,77.00
2017-12-11T23:53:11.286Z,76.90
2017-12-11T23:55:38.135Z,76.60
2017-12-11T23:58:04.975Z,76.70
